Challenger — WDC2588 — position and weather

sailwx.info

Track history (hours):
 
Tides and Currents Weather Stations Pressure Air Temp Water Temp Dewpoint Dewpoint Depression Visibility Wind Speed Wind Dir Waves Ship Positions

Challenger

Owner: Kirby Inland Marine LP, Houston, TX. More information available from US FCC via Universal Licensing System and Coast Guard Vessel Documentation Center.

Last reported at 2018-May-22 21:30 UTC. Time now 2018-May-22 21:39 UTC.
Position N 30°04' W 093°21'.

Length 23 m; draft 3 m.

Type: . MMSI: 366995320.

Date/timePositionNaut miles runAvg speedWind from/ knotsBaromVisibWave heightAir tempDewpointWater temp
2018-May-22 21:30N 30°04' W 093°21'1 1.6
2018-May-22 21:00N 30°04' W 093°21'0 0.0
2018-May-22 20:30N 30°04' W 093°21'0 0.0
2018-May-22 20:00N 30°04' W 093°21'0 0.0
2018-May-22 19:29N 30°04' W 093°21'0 0.0
2018-May-22 18:59N 30°04' W 093°21'0 0.0
2018-May-22 18:30N 30°04' W 093°21'0 0.0
2018-May-22 18:00N 30°04' W 093°21'0 0.0
2018-May-22 17:30N 30°04' W 093°21'0 0.0
2018-May-22 17:00N 30°04' W 093°21'0 0.0
2018-May-22 16:28N 30°04' W 093°21'0 0.0
2018-May-22 16:00N 30°04' W 093°21'0 0.0
2018-May-22 15:30N 30°04' W 093°21'0 0.0
2018-May-22 15:00N 30°04' W 093°21'0 0.0
2018-May-22 14:30N 30°04' W 093°21'0 0.4
2018-May-22 14:00N 30°04' W 093°21'1 1.3
2018-May-22 13:30N 30°04' W 093°21'0 0.0
2018-May-22 13:00N 30°04' W 093°21'0 0.0
2018-May-22 12:29N 30°04' W 093°21'0 0.0
2018-May-22 11:59N 30°04' W 093°21'0 0.0
2018-May-22 11:29N 30°04' W 093°21'0 0.0
2018-May-22 11:00N 30°04' W 093°21'0 0.0
2018-May-22 10:30N 30°04' W 093°21'0 0.0
2018-May-22 10:00N 30°04' W 093°21'0 0.0
2018-May-22 09:29N 30°04' W 093°21'0 0.0
2018-May-22 09:00N 30°04' W 093°21'0 0.0
2018-May-22 08:28N 30°04' W 093°21'0 0.0
2018-May-22 08:00N 30°04' W 093°21'0 0.0
2018-May-22 07:30N 30°04' W 093°21'0 0.0
2018-May-22 06:58N 30°04' W 093°21'0 0.0
2018-May-22 06:30N 30°04' W 093°21'0 0.0
2018-May-22 06:00N 30°04' W 093°21'0 0.0
2018-May-22 05:30N 30°04' W 093°21'0 0.0
2018-May-22 05:00N 30°04' W 093°21'0 0.0
2018-May-22 04:30N 30°04' W 093°21'0 0.0
2018-May-22 04:00N 30°04' W 093°21'0 0.0
2018-May-22 03:30N 30°04' W 093°21'0 0.0
2018-May-22 03:00N 30°04' W 093°21'0 0.0
2018-May-22 02:30N 30°04' W 093°21'0 0.0
2018-May-22 02:00N 30°04' W 093°21'1 3.0
2018-May-22 01:30N 30°04' W 093°22'2 4.0
2018-May-22 01:00N 30°05' W 093°20'4 7.3
2018-May-22 00:30N 30°08' W 093°20'4 7.7
2018-May-22 00:00N 30°12' W 093°17'3 6.1
2018-May-21 23:31N 30°13' W 093°14'2 3.8
2018-May-21 23:00N 30°15' W 093°14'1 1.7
2018-May-21 22:30N 30°15' W 093°13'1 1.9
2018-May-21 22:00N 30°15' W 093°12'0 0.0
2018-May-21 21:30N 30°15' W 093°12'0 0.0
2018-May-21 21:00N 30°15' W 093°12'0 0.0
2018-May-21 20:30N 30°15' W 093°12'0 0.0
2018-May-21 20:00N 30°15' W 093°12'0 0.0
2018-May-21 19:30N 30°15' W 093°12'0 0.0
2018-May-21 19:00N 30°15' W 093°12'0 0.0
2018-May-21 18:30N 30°15' W 093°12'0 0.0
2018-May-21 18:00N 30°15' W 093°12'0 0.0
2018-May-21 17:27N 30°15' W 093°12'0 0.0
2018-May-21 17:00N 30°15' W 093°12'0 0.0
2018-May-21 16:30N 30°15' W 093°12'0 0.0
2018-May-21 15:59N 30°15' W 093°12'0 0.1
2018-May-21 15:07N 30°15' W 093°12'0 0.0
2018-May-21 15:00N 30°15' W 093°12'0 0.8
2018-May-21 14:30N 30°15' W 093°13'1 1.1
2018-May-21 14:01N 30°15' W 093°13'1 2.7
2018-May-21 13:30N 30°15' W 093°15'1 1.7
2018-May-21 13:00N 30°14' W 093°15'0 0.1
2018-May-21 12:29N 30°14' W 093°15'1 1.7
2018-May-21 12:00N 30°13' W 093°15'2 3.2
2018-May-21 11:30N 30°12' W 093°17'2 4.1
2018-May-21 11:00N 30°11' W 093°19'2 3.6
2018-May-21 10:30N 30°09' W 093°20'2 3.7
2018-May-21 10:00N 30°08' W 093°20'2 3.7
2018-May-21 09:30N 30°06' W 093°20'1 2.0
2018-May-21 08:59N 30°05' W 093°20'0 0.1
2018-May-21 08:28N 30°05' W 093°20'1 1.3
2018-May-21 08:00N 30°04' W 093°21'0 0.0
2018-May-21 07:30N 30°04' W 093°21'0 0.0
2018-May-21 07:00N 30°04' W 093°21'0 0.0
2018-May-21 06:30N 30°04' W 093°21'0 0.0
2018-May-21 06:00N 30°04' W 093°21'0 0.0
2018-May-21 05:30N 30°04' W 093°21'0 0.0
2018-May-21 05:00N 30°04' W 093°21'0 0.0
2018-May-21 04:30N 30°04' W 093°21'0 0.0
2018-May-21 03:57N 30°04' W 093°21'0 0.0
2018-May-21 03:30N 30°04' W 093°21'0 0.0
2018-May-21 03:00N 30°04' W 093°21'0 0.0
2018-May-21 02:30N 30°04' W 093°21'0 0.0
2018-May-21 02:00N 30°04' W 093°21'0 0.0
2018-May-21 01:30N 30°04' W 093°21'0 0.0
2018-May-21 01:00N 30°04' W 093°21'0 0.0
2018-May-21 00:30N 30°04' W 093°21'0 0.0
2018-May-21 00:00N 30°04' W 093°21'0 0.0
2018-May-20 23:30N 30°04' W 093°21'0 0.0
2018-May-20 23:00N 30°04' W 093°21'0 0.0
2018-May-20 22:30N 30°04' W 093°21'0 0.0
2018-May-20 22:00N 30°04' W 093°21'0 0.0
2018-May-20 21:30N 30°04' W 093°21'0 0.0
2018-May-20 21:00N 30°04' W 093°21'0 0.0
2018-May-20 20:30N 30°04' W 093°21'0 0.0
2018-May-20 20:00N 30°04' W 093°21'0 0.0
2018-May-20 19:30N 30°04' W 093°21'0 0.0
2018-May-20 19:00N 30°04' W 093°21'0 0.0
2018-May-20 18:30N 30°04' W 093°21'0 0.0
2018-May-20 18:00N 30°04' W 093°21'0 0.0
2018-May-20 17:30N 30°04' W 093°21'0 0.0
2018-May-20 17:00N 30°04' W 093°21'0 0.0
2018-May-20 16:29N 30°04' W 093°21'0 0.0
2018-May-20 15:59N 30°04' W 093°21'0 0.0
2018-May-20 15:29N 30°04' W 093°21'0 0.0
2018-May-20 14:59N 30°04' W 093°21'0 0.0
2018-May-20 14:29N 30°04' W 093°21'0 0.0
2018-May-20 13:59N 30°04' W 093°21'0 0.0
2018-May-20 13:29N 30°04' W 093°21'0 0.0
2018-May-20 12:59N 30°04' W 093°21'0 0.0
2018-May-20 12:29N 30°04' W 093°21'0 0.0
2018-May-20 11:59N 30°04' W 093°21'0 0.0
2018-May-20 11:29N 30°04' W 093°21'0 0.0
2018-May-20 10:59N 30°04' W 093°21'0 0.0
2018-May-20 10:29N 30°04' W 093°21'0 0.0
2018-May-20 09:59N 30°04' W 093°21'0 0.0
2018-May-20 09:29N 30°04' W 093°21'0 0.0
2018-May-20 08:59N 30°04' W 093°21'0 0.0
2018-May-20 08:29N 30°04' W 093°21'0 0.0
2018-May-20 07:59N 30°04' W 093°21'0 0.0
2018-May-20 07:29N 30°04' W 093°21'0 0.0
2018-May-20 06:59N 30°04' W 093°21'0 0.0
2018-May-20 06:29N 30°04' W 093°21'0 0.0
2018-May-20 05:59N 30°04' W 093°21'0 0.0
2018-May-20 05:29N 30°04' W 093°21'0 0.0
2018-May-20 04:59N 30°04' W 093°21'0 0.0
2018-May-20 04:29N 30°04' W 093°21'0 0.0
2018-May-20 03:59N 30°04' W 093°21'0 0.0
2018-May-20 03:29N 30°04' W 093°21'0 0.0
2018-May-20 02:59N 30°04' W 093°21'0 0.0
2018-May-20 02:29N 30°04' W 093°21'0 0.0
2018-May-20 01:59N 30°04' W 093°21'0 0.0
2018-May-20 01:29N 30°04' W 093°21'0 0.0
2018-May-20 00:59N 30°04' W 093°21'0 0.0
2018-May-20 00:29N 30°04' W 093°21'0 0.0
2018-May-19 23:59N 30°04' W 093°21'0 0.0
2018-May-19 23:29N 30°04' W 093°21'0 0.0
2018-May-19 22:59N 30°04' W 093°21'0 0.0
2018-May-19 22:29N 30°04' W 093°21'0 0.0
2018-May-19 21:59N 30°04' W 093°21'0 0.0
2018-May-19 21:29N 30°04' W 093°21'0 0.0
2018-May-19 20:59N 30°04' W 093°21'0 0.0
2018-May-19 20:29N 30°04' W 093°21'0 0.0
2018-May-19 19:59N 30°04' W 093°21'0 0.0
2018-May-19 19:29N 30°04' W 093°21'0 0.0
2018-May-19 18:59N 30°04' W 093°21'0 0.0
2018-May-19 18:29N 30°04' W 093°21'0 0.0
2018-May-19 17:59N 30°04' W 093°21'0 0.0
2018-May-19 17:29N 30°04' W 093°21'0 0.0
2018-May-19 16:59N 30°04' W 093°21'0 0.0
2018-May-19 16:29N 30°04' W 093°21'0 0.0
2018-May-19 15:59N 30°04' W 093°21'0 0.0
2018-May-19 15:29N 30°04' W 093°21'0 0.0
2018-May-19 14:59N 30°04' W 093°21'0 0.0
2018-May-19 14:29N 30°04' W 093°21'0 0.0
2018-May-19 13:59N 30°04' W 093°21'0 0.0
2018-May-19 13:29N 30°04' W 093°21'0 0.0
2018-May-19 12:59N 30°04' W 093°21'0 0.0
2018-May-19 12:29N 30°04' W 093°21'0 0.0
2018-May-19 11:59N 30°04' W 093°21'0 0.0
2018-May-19 11:29N 30°04' W 093°21'0 0.0
2018-May-19 10:59N 30°04' W 093°21'0 0.0
2018-May-19 10:29N 30°04' W 093°21'0 0.0
2018-May-19 09:59N 30°04' W 093°21'0 0.0
2018-May-19 09:29N 30°04' W 093°21'0 0.0
2018-May-19 08:58N 30°04' W 093°21'0 0.0
2018-May-19 08:28N 30°04' W 093°21'0 0.0
2018-May-19 07:58N 30°04' W 093°21'0 0.0
2018-May-19 07:28N 30°04' W 093°21'0 0.0
2018-May-19 06:58N 30°04' W 093°21'0 0.0
2018-May-19 06:28N 30°04' W 093°21'0 0.0
2018-May-19 05:58N 30°04' W 093°21'0 0.0
2018-May-19 05:28N 30°04' W 093°21'0 0.0
2018-May-19 04:58N 30°04' W 093°21'0 0.0
2018-May-19 04:28N 30°04' W 093°21'0 0.0
2018-May-19 03:58N 30°04' W 093°21'0 0.0
2018-May-19 03:28N 30°04' W 093°21'0 0.0
2018-May-19 02:58N 30°04' W 093°21'0 0.0
2018-May-19 02:27N 30°04' W 093°21'0 0.0
2018-May-19 01:58N 30°04' W 093°21'0 0.0
2018-May-19 01:28N 30°04' W 093°21'0 0.0
2018-May-19 00:58N 30°04' W 093°21'0 0.0
2018-May-19 00:28N 30°04' W 093°21'0 0.0
2018-May-18 23:58N 30°04' W 093°21'0 0.0
2018-May-18 23:28N 30°04' W 093°21'0 0.0
2018-May-18 22:58N 30°04' W 093°21'0 0.0
2018-May-18 22:28N 30°04' W 093°21'0 0.0
2018-May-18 21:58N 30°04' W 093°21'0 0.0
2018-May-18 21:28N 30°04' W 093°21'0 0.0
2018-May-18 20:58N 30°04' W 093°21'0 0.0
2018-May-18 20:28N 30°04' W 093°21'0 0.0
2018-May-18 19:58N 30°04' W 093°21'0 0.0
2018-May-18 19:28N 30°04' W 093°21'0 0.0
2018-May-18 18:58N 30°04' W 093°21'0 0.0
2018-May-18 18:28N 30°04' W 093°21'0 0.0
2018-May-18 17:58N 30°04' W 093°21'0 0.0
2018-May-18 17:28N 30°04' W 093°21'0 0.0
2018-May-18 16:58N 30°04' W 093°21'0 0.0
2018-May-18 16:28N 30°04' W 093°21'0 0.0
2018-May-18 15:58N 30°04' W 093°21'0 0.0
2018-May-18 15:28N 30°04' W 093°21'0 0.0
2018-May-18 14:58N 30°04' W 093°21'0 0.2
2018-May-18 14:30N 30°04' W 093°20'2 3.8
2018-May-18 14:00N 30°06' W 093°19'1 1.8
2018-May-18 13:30N 30°06' W 093°18'0 0.0
2018-May-18 13:00N 30°06' W 093°18'2 3.2
2018-May-18 12:30N 30°05' W 093°20'1 2.4
2018-May-18 11:59N 30°04' W 093°21'0 0.0
2018-May-18 11:29N 30°04' W 093°21'0 0.0
2018-May-18 10:59N 30°04' W 093°21'0 0.0
2018-May-18 10:29N 30°04' W 093°21'0 0.0
2018-May-18 09:59N 30°04' W 093°21'0 0.0
2018-May-18 09:29N 30°04' W 093°21'0 0.0
2018-May-18 08:59N 30°04' W 093°21'0 0.0
2018-May-18 08:29N 30°04' W 093°21'0 0.0
2018-May-18 07:59N 30°04' W 093°21'0 0.0
2018-May-18 07:29N 30°04' W 093°21'0 0.0
2018-May-18 06:59N 30°04' W 093°21'0 0.0
2018-May-18 06:29N 30°04' W 093°21'0 0.0
2018-May-18 05:59N 30°04' W 093°21'0 0.0
2018-May-18 05:26N 30°04' W 093°21'0 0.0
2018-May-18 04:59N 30°04' W 093°21'0 0.0
2018-May-18 04:29N 30°04' W 093°21'0 0.0
2018-May-18 03:59N 30°04' W 093°21'0 0.0
2018-May-18 03:30N 30°04' W 093°21'0 0.9
2018-May-18 03:00N 30°04' W 093°21'2 4.3
2018-May-18 02:30N 30°04' W 093°23'3 5.5
2018-May-18 02:00N 30°04' W 093°26'3 5.6
2018-May-18 01:28N 30°04' W 093°30'3 5.9
2018-May-18 00:58N 30°04' W 093°33'3 6.7
2018-May-18 00:29N 30°04' W 093°37'4 7.1
2018-May-17 23:57N 30°03' W 093°41'3 6.4
2018-May-17 23:29N 30°02' W 093°44'3 6.9
2018-May-17 23:00N 29°60' W 093°47'3 7.0
2018-May-17 22:30N 29°58' W 093°51'3 6.5
2018-May-17 22:00N 29°56' W 093°53'4 7.2
2018-May-17 21:30N 29°53' W 093°55'4 7.1
2018-May-17 21:00N 29°50' W 093°57'3 5.9
2018-May-17 20:30N 29°48' W 094°00'3 6.9
2018-May-17 20:00N 29°46' W 094°03'3 6.6
2018-May-17 19:30N 29°44' W 094°06'4 7.0
2018-May-17 19:00N 29°42' W 094°09'3 5.2
2018-May-17 18:30N 29°41' W 094°12'3 5.9
2018-May-17 17:59N 29°39' W 094°15'3 5.1
2018-May-17 17:18N 29°38' W 094°19'20 6.0
2018-May-17 13:59N 29°28' W 094°39'3 6.3
2018-May-17 13:30N 29°27' W 094°42'2 0.7
2018-May-17 10:57N 29°25' W 094°43'0 0.0
2018-May-17 10:30N 29°25' W 094°43'2 3.3
2018-May-17 09:52N 29°24' W 094°45'3 7.0
2018-May-17 09:29N 29°22' W 094°48'3 5.1
2018-May-17 08:56N 29°22' W 094°51'2 5.2
2018-May-17 08:30N 29°22' W 094°53'0 0.4
2018-May-17 08:00N 29°22' W 094°54'0 0.0
2018-May-17 07:30N 29°22' W 094°54'0 0.0
2018-May-17 07:00N 29°22' W 094°54'0 0.0
2018-May-17 06:30N 29°22' W 094°54'0 0.0
2018-May-17 05:58N 29°22' W 094°54'0 0.0
2018-May-17 05:30N 29°22' W 094°54'0 0.0
2018-May-17 05:00N 29°22' W 094°54'0 0.0
2018-May-17 04:30N 29°22' W 094°54'0 0.0
2018-May-17 04:00N 29°22' W 094°54'0 0.0
2018-May-17 03:30N 29°22' W 094°54'0 0.0
2018-May-17 03:00N 29°22' W 094°54'0 0.0
2018-May-17 02:30N 29°22' W 094°54'0 0.0
2018-May-17 02:00N 29°22' W 094°54'0 0.0
2018-May-17 01:30N 29°22' W 094°54'0 0.0
2018-May-17 01:00N 29°22' W 094°54'0 0.0
2018-May-17 00:30N 29°22' W 094°54'0 0.0
2018-May-17 00:00N 29°22' W 094°54'0 0.0
2018-May-16 23:30N 29°22' W 094°54'0 0.0
2018-May-16 23:00N 29°22' W 094°54'0 0.0
2018-May-16 22:29N 29°22' W 094°54'0 0.0
2018-May-16 22:00N 29°22' W 094°54'0 0.0
2018-May-16 21:30N 29°22' W 094°54'0 0.0
2018-May-16 21:00N 29°22' W 094°54'0 0.0
2018-May-16 20:30N 29°22' W 094°54'0 0.0
2018-May-16 19:59N 29°22' W 094°54'0 0.0
2018-May-16 19:30N 29°22' W 094°54'0 0.0
2018-May-16 18:59N 29°22' W 094°54'0 0.0
2018-May-16 18:30N 29°22' W 094°54'0 0.0
2018-May-16 18:00N 29°22' W 094°54'0 0.0
2018-May-16 17:29N 29°22' W 094°54'0 0.0
2018-May-16 16:58N 29°22' W 094°54'0 0.0
2018-May-16 16:27N 29°22' W 094°54'0 0.0
2018-May-16 15:58N 29°22' W 094°54'0 0.0
2018-May-16 15:30N 29°22' W 094°54'0 0.0
2018-May-16 14:58N 29°22' W 094°54'0 0.0
2018-May-16 14:30N 29°22' W 094°54'0 0.0
2018-May-16 13:59N 29°22' W 094°54'0 0.0
2018-May-16 13:30N 29°22' W 094°54'0 0.0
2018-May-16 13:00N 29°22' W 094°54'0 0.0
2018-May-16 12:30N 29°22' W 094°54'0 0.0
2018-May-16 12:00N 29°22' W 094°54'0 0.0
2018-May-16 11:30N 29°22' W 094°54'0 0.0
2018-May-16 11:00N 29°22' W 094°54'0 0.1
2018-May-16 10:30N 29°22' W 094°53'0 0.2
2018-May-16 10:01N 29°22' W 094°53'0 0.8
2018-May-16 09:30N 29°23' W 094°53'3 5.3
2018-May-16 09:00N 29°22' W 094°50'2 4.9
2018-May-16 08:30N 29°22' W 094°47'2 4.7
2018-May-16 08:00N 29°24' W 094°45'2 4.2
2018-May-16 07:30N 29°25' W 094°44'1 1.6
2018-May-16 07:00N 29°26' W 094°43'0 0.0
2018-May-16 06:30N 29°26' W 094°43'0 0.0
2018-May-16 06:00N 29°26' W 094°43'0 0.0
2018-May-16 05:30N 29°26' W 094°43'0 0.2
2018-May-16 04:58N 29°26' W 094°43'0 0.3
2018-May-16 04:30N 29°26' W 094°43'0 0.0
2018-May-16 04:00N 29°26' W 094°43'0 0.0
2018-May-16 03:30N 29°26' W 094°43'0 0.0
2018-May-16 03:00N 29°26' W 094°43'0 0.0
2018-May-16 02:30N 29°26' W 094°43'0 0.0
2018-May-16 02:00N 29°26' W 094°43'0 0.0
2018-May-16 01:30N 29°26' W 094°43'0 0.0
2018-May-16 01:00N 29°26' W 094°43'0 0.0
2018-May-16 00:30N 29°26' W 094°43'0 0.0
2018-May-16 00:00N 29°26' W 094°43'0 0.2
2018-May-15 23:29N 29°26' W 094°43'0 0.0
2018-May-15 22:51N 29°26' W 094°43'0 0.0
2018-May-15 20:22N 29°26' W 094°43'0 0.0
2018-May-15 19:31N 29°26' W 094°43'0 0.0
2018-May-15 19:27N 29°26' W 094°43'0 0.0
2018-May-15 15:00N 29°26' W 094°43'0 0.0
2018-May-15 14:28N 29°26' W 094°43'0 0.0
2018-May-15 14:00N 29°26' W 094°43'0 0.0
2018-May-15 13:29N 29°26' W 094°43'0 0.0
2018-May-15 13:00N 29°26' W 094°43'0 0.0
2018-May-15 12:30N 29°26' W 094°43'0 0.0
2018-May-15 12:00N 29°26' W 094°43'0 0.0
2018-May-15 11:30N 29°26' W 094°43'0 0.0
2018-May-15 10:51N 29°26' W 094°43'0 0.0
2018-May-15 10:29N 29°26' W 094°43'0 0.0
2018-May-15 10:00N 29°26' W 094°43'0 0.0
2018-May-15 09:29N 29°26' W 094°43'0 0.0
2018-May-15 09:00N 29°26' W 094°43'0 0.0
2018-May-15 08:27N 29°26' W 094°43'0 0.0
2018-May-15 07:08N 29°26' W 094°43'0 0.0
2018-May-15 07:00N 29°26' W 094°43'0 0.0
2018-May-15 06:30N 29°26' W 094°43'0 0.0
2018-May-15 06:00N 29°26' W 094°43'0 0.0
2018-May-15 05:30N 29°26' W 094°43'0 0.0
2018-May-15 05:00N 29°26' W 094°43'0 0.0
2018-May-15 04:29N 29°26' W 094°43'0 0.0
2018-May-15 04:00N 29°26' W 094°43'0 0.0
2018-May-15 03:27N 29°26' W 094°43'0 0.0
2018-May-15 02:59N 29°26' W 094°43'0 0.0
2018-May-15 02:30N 29°26' W 094°43'0 0.0
2018-May-15 02:00N 29°26' W 094°43'0 0.0
2018-May-15 01:30N 29°26' W 094°43'0 0.0
2018-May-15 01:00N 29°26' W 094°43'0 0.0
2018-May-15 00:30N 29°26' W 094°43'0 0.0
2018-May-15 00:00N 29°26' W 094°43'0 0.0
2018-May-14 23:29N 29°26' W 094°43'0 0.0
2018-May-14 22:48N 29°26' W 094°43'0 0.0
2018-May-14 22:29N 29°26' W 094°43'0 0.0
2018-May-14 21:49N 29°26' W 094°43'0 0.0
2018-May-14 21:30N 29°26' W 094°43'0 0.0
2018-May-14 19:30N 29°26' W 094°43'0 0.3
2018-May-14 19:00N 29°26' W 094°43'8 5.1
2018-May-14 17:28N 29°29' W 094°35'4 5.1
2018-May-14 16:36N 29°31' W 094°30'4 4.9
2018-May-14 15:50N 29°34' W 094°27'2 4.9
2018-May-14 15:29N 29°34' W 094°25'2 4.2
2018-May-14 15:00N 29°36' W 094°24'2 3.3
2018-May-14 14:27N 29°36' W 094°22'2 3.9
2018-May-14 14:00N 29°37' W 094°20'2 4.9
2018-May-14 13:30N 29°38' W 094°18'2 5.0
2018-May-14 13:00N 29°39' W 094°15'3 5.0
2018-May-14 12:30N 29°40' W 094°13'3 4.9
2018-May-14 11:59N 29°41' W 094°10'2 5.0
2018-May-14 11:30N 29°43' W 094°08'3 5.3
2018-May-14 11:00N 29°44' W 094°05'3 5.4
2018-May-14 10:30N 29°46' W 094°03'3 5.5
2018-May-14 10:00N 29°48' W 094°00'3 5.2
2018-May-14 09:30N 29°49' W 093°58'3 5.3
2018-May-14 09:00N 29°52' W 093°56'3 5.1
2018-May-14 08:30N 29°54' W 093°55'3 6.3
2018-May-14 08:00N 29°56' W 093°52'3 5.4
2018-May-14 07:30N 29°58' W 093°51'3 6.4
2018-May-14 07:00N 29°59' W 093°47'3 6.6
2018-May-14 06:30N 30°02' W 093°44'3 5.8
2018-May-14 06:00N 30°03' W 093°42'3 6.1
2018-May-14 05:30N 30°04' W 093°38'3 5.0
2018-May-14 04:59N 30°04' W 093°35'2 4.5
2018-May-14 04:29N 30°04' W 093°33'2 4.5
2018-May-14 04:00N 30°04' W 093°30'2 4.0
2018-May-14 03:30N 30°04' W 093°28'2 4.3
2018-May-14 03:00N 30°04' W 093°25'2 4.2
2018-May-14 02:30N 30°04' W 093°23'2 3.6
2018-May-14 02:00N 30°04' W 093°21'2 4.2
2018-May-14 01:30N 30°06' W 093°20'3 5.1
2018-May-14 01:00N 30°08' W 093°20'2 4.4
2018-May-14 00:30N 30°10' W 093°19'0 0.5
2018-May-14 00:00N 30°10' W 093°19'0 0.2
2018-May-13 23:30N 30°10' W 093°19'0 0.0
2018-May-13 23:00N 30°10' W 093°19'0 0.0
2018-May-13 22:30N 30°10' W 093°19'0 0.0
2018-May-13 22:00N 30°10' W 093°19'0 0.0
2018-May-13 21:30N 30°10' W 093°19'0 0.0
2018-May-13 21:00N 30°10' W 093°19'0 0.0
2018-May-13 20:30N 30°10' W 093°19'0 0.0
2018-May-13 20:00N 30°10' W 093°19'0 0.0
2018-May-13 19:30N 30°10' W 093°19'0 0.0
2018-May-13 19:00N 30°10' W 093°19'0 0.0
2018-May-13 18:30N 30°10' W 093°19'0 0.0
2018-May-13 18:00N 30°10' W 093°19'0 0.0
2018-May-13 17:30N 30°10' W 093°19'0 0.0
2018-May-13 17:00N 30°10' W 093°19'0 0.0
2018-May-13 16:30N 30°10' W 093°19'0 0.0
2018-May-13 16:00N 30°10' W 093°19'0 0.0
2018-May-13 15:30N 30°10' W 093°19'0 0.0
2018-May-13 15:00N 30°10' W 093°19'0 0.0
2018-May-13 14:30N 30°10' W 093°19'0 0.0
2018-May-13 14:00N 30°10' W 093°19'0 0.0
2018-May-13 13:30N 30°10' W 093°19'0 0.0
2018-May-13 13:00N 30°10' W 093°19'0 0.0
2018-May-13 12:30N 30°10' W 093°19'0 0.0
2018-May-13 12:00N 30°10' W 093°19'0 0.0
2018-May-13 11:30N 30°10' W 093°19'0 0.0
2018-May-13 11:00N 30°10' W 093°19'0 0.0
2018-May-13 10:30N 30°10' W 093°19'0 0.0
2018-May-13 10:00N 30°10' W 093°19'0 0.0
2018-May-13 09:30N 30°10' W 093°19'0 0.0
2018-May-13 09:00N 30°10' W 093°19'0 0.0
2018-May-13 08:30N 30°10' W 093°19'0 0.0
2018-May-13 07:59N 30°10' W 093°19'0 0.0
2018-May-13 07:30N 30°10' W 093°19'0 0.0
2018-May-13 07:00N 30°10' W 093°19'0 0.0
2018-May-13 06:30N 30°10' W 093°19'0 0.0
2018-May-13 06:00N 30°10' W 093°19'0 0.0
2018-May-13 05:30N 30°10' W 093°19'0 0.0
2018-May-13 05:00N 30°10' W 093°19'0 0.0
2018-May-13 04:30N 30°10' W 093°19'0 0.0
2018-May-13 04:00N 30°10' W 093°19'0 0.0
2018-May-13 03:30N 30°10' W 093°19'0 0.0
2018-May-13 02:59N 30°10' W 093°19'0 0.0
2018-May-13 02:30N 30°10' W 093°19'0 0.0
2018-May-13 02:00N 30°10' W 093°19'0 0.0
2018-May-13 01:30N 30°10' W 093°19'0 0.0
2018-May-13 01:00N 30°10' W 093°19'0 0.0
2018-May-13 00:30N 30°10' W 093°19'0 0.0
2018-May-12 23:59N 30°10' W 093°19'0 0.0
2018-May-12 23:30N 30°10' W 093°19'0 0.0
2018-May-12 23:00N 30°10' W 093°19'0 0.0
2018-May-12 22:30N 30°10' W 093°19'0 0.0
2018-May-12 22:00N 30°10' W 093°19'  
Track history (hours):
 
Tides and Currents Weather Stations Pressure Air Temp Water Temp Dewpoint Dewpoint Depression Visibility Wind Speed Wind Dir Waves Ship Positions

Challenger

Owner: Kirby Inland Marine LP, Houston, TX. More information available from US FCC via Universal Licensing System and Coast Guard Vessel Documentation Center.

Last reported at 2018-May-22 21:30 UTC. Time now 2018-May-22 21:39 UTC.
Position N 30°04' W 093°21'.

Length 23 m; draft 3 m.

Type: . MMSI: 366995320.

Date/timePositionNaut miles runAvg speedWind from/ knotsBaromVisibWave heightAir tempDewpointWater temp
2018-May-22 21:30N 30°04' W 093°21'1 1.6
2018-May-22 21:00N 30°04' W 093°21'0 0.0
2018-May-22 20:30N 30°04' W 093°21'0 0.0
2018-May-22 20:00N 30°04' W 093°21'0 0.0
2018-May-22 19:29N 30°04' W 093°21'0 0.0
2018-May-22 18:59N 30°04' W 093°21'0 0.0
2018-May-22 18:30N 30°04' W 093°21'0 0.0
2018-May-22 18:00N 30°04' W 093°21'0 0.0
2018-May-22 17:30N 30°04' W 093°21'0 0.0
2018-May-22 17:00N 30°04' W 093°21'0 0.0
2018-May-22 16:28N 30°04' W 093°21'0 0.0
2018-May-22 16:00N 30°04' W 093°21'0 0.0
2018-May-22 15:30N 30°04' W 093°21'0 0.0
2018-May-22 15:00N 30°04' W 093°21'0 0.0
2018-May-22 14:30N 30°04' W 093°21'0 0.4
2018-May-22 14:00N 30°04' W 093°21'1 1.3
2018-May-22 13:30N 30°04' W 093°21'0 0.0
2018-May-22 13:00N 30°04' W 093°21'0 0.0
2018-May-22 12:29N 30°04' W 093°21'0 0.0
2018-May-22 11:59N 30°04' W 093°21'0 0.0
2018-May-22 11:29N 30°04' W 093°21'0 0.0
2018-May-22 11:00N 30°04' W 093°21'0 0.0
2018-May-22 10:30N 30°04' W 093°21'0 0.0
2018-May-22 10:00N 30°04' W 093°21'0 0.0
2018-May-22 09:29N 30°04' W 093°21'0 0.0
2018-May-22 09:00N 30°04' W 093°21'0 0.0
2018-May-22 08:28N 30°04' W 093°21'0 0.0
2018-May-22 08:00N 30°04' W 093°21'0 0.0
2018-May-22 07:30N 30°04' W 093°21'0 0.0
2018-May-22 06:58N 30°04' W 093°21'0 0.0
2018-May-22 06:30N 30°04' W 093°21'0 0.0
2018-May-22 06:00N 30°04' W 093°21'0 0.0
2018-May-22 05:30N 30°04' W 093°21'0 0.0
2018-May-22 05:00N 30°04' W 093°21'0 0.0
2018-May-22 04:30N 30°04' W 093°21'0 0.0
2018-May-22 04:00N 30°04' W 093°21'0 0.0
2018-May-22 03:30N 30°04' W 093°21'0 0.0
2018-May-22 03:00N 30°04' W 093°21'0 0.0
2018-May-22 02:30N 30°04' W 093°21'0 0.0
2018-May-22 02:00N 30°04' W 093°21'1 3.0
2018-May-22 01:30N 30°04' W 093°22'2 4.0
2018-May-22 01:00N 30°05' W 093°20'4 7.3
2018-May-22 00:30N 30°08' W 093°20'4 7.7
2018-May-22 00:00N 30°12' W 093°17'3 6.1
2018-May-21 23:31N 30°13' W 093°14'2 3.8
2018-May-21 23:00N 30°15' W 093°14'1 1.7
2018-May-21 22:30N 30°15' W 093°13'1 1.9
2018-May-21 22:00N 30°15' W 093°12'0 0.0
2018-May-21 21:30N 30°15' W 093°12'0 0.0
2018-May-21 21:00N 30°15' W 093°12'0 0.0
2018-May-21 20:30N 30°15' W 093°12'0 0.0
2018-May-21 20:00N 30°15' W 093°12'0 0.0
2018-May-21 19:30N 30°15' W 093°12'0 0.0
2018-May-21 19:00N 30°15' W 093°12'0 0.0
2018-May-21 18:30N 30°15' W 093°12'0 0.0
2018-May-21 18:00N 30°15' W 093°12'0 0.0
2018-May-21 17:27N 30°15' W 093°12'0 0.0
2018-May-21 17:00N 30°15' W 093°12'0 0.0
2018-May-21 16:30N 30°15' W 093°12'0 0.0
2018-May-21 15:59N 30°15' W 093°12'0 0.1
2018-May-21 15:07N 30°15' W 093°12'0 0.0
2018-May-21 15:00N 30°15' W 093°12'0 0.8
2018-May-21 14:30N 30°15' W 093°13'1 1.1
2018-May-21 14:01N 30°15' W 093°13'1 2.7
2018-May-21 13:30N 30°15' W 093°15'1 1.7
2018-May-21 13:00N 30°14' W 093°15'0 0.1
2018-May-21 12:29N 30°14' W 093°15'1 1.7
2018-May-21 12:00N 30°13' W 093°15'2 3.2
2018-May-21 11:30N 30°12' W 093°17'2 4.1
2018-May-21 11:00N 30°11' W 093°19'2 3.6
2018-May-21 10:30N 30°09' W 093°20'2 3.7
2018-May-21 10:00N 30°08' W 093°20'2 3.7
2018-May-21 09:30N 30°06' W 093°20'1 2.0
2018-May-21 08:59N 30°05' W 093°20'0 0.1
2018-May-21 08:28N 30°05' W 093°20'1 1.3
2018-May-21 08:00N 30°04' W 093°21'0 0.0
2018-May-21 07:30N 30°04' W 093°21'0 0.0
2018-May-21 07:00N 30°04' W 093°21'0 0.0
2018-May-21 06:30N 30°04' W 093°21'0 0.0
2018-May-21 06:00N 30°04' W 093°21'0 0.0
2018-May-21 05:30N 30°04' W 093°21'0 0.0
2018-May-21 05:00N 30°04' W 093°21'0 0.0
2018-May-21 04:30N 30°04' W 093°21'0 0.0
2018-May-21 03:57N 30°04' W 093°21'0 0.0
2018-May-21 03:30N 30°04' W 093°21'0 0.0
2018-May-21 03:00N 30°04' W 093°21'0 0.0
2018-May-21 02:30N 30°04' W 093°21'0 0.0
2018-May-21 02:00N 30°04' W 093°21'0 0.0
2018-May-21 01:30N 30°04' W 093°21'0 0.0
2018-May-21 01:00N 30°04' W 093°21'0 0.0
2018-May-21 00:30N 30°04' W 093°21'0 0.0
2018-May-21 00:00N 30°04' W 093°21'0 0.0
2018-May-20 23:30N 30°04' W 093°21'0 0.0
2018-May-20 23:00N 30°04' W 093°21'0 0.0
2018-May-20 22:30N 30°04' W 093°21'0 0.0
2018-May-20 22:00N 30°04' W 093°21'0 0.0
2018-May-20 21:30N 30°04' W 093°21'0 0.0
2018-May-20 21:00N 30°04' W 093°21'0 0.0
2018-May-20 20:30N 30°04' W 093°21'0 0.0
2018-May-20 20:00N 30°04' W 093°21'0 0.0
2018-May-20 19:30N 30°04' W 093°21'0 0.0
2018-May-20 19:00N 30°04' W 093°21'0 0.0
2018-May-20 18:30N 30°04' W 093°21'0 0.0
2018-May-20 18:00N 30°04' W 093°21'0 0.0
2018-May-20 17:30N 30°04' W 093°21'0 0.0
2018-May-20 17:00N 30°04' W 093°21'0 0.0
2018-May-20 16:29N 30°04' W 093°21'0 0.0
2018-May-20 15:59N 30°04' W 093°21'0 0.0
2018-May-20 15:29N 30°04' W 093°21'0 0.0
2018-May-20 14:59N 30°04' W 093°21'0 0.0
2018-May-20 14:29N 30°04' W 093°21'0 0.0
2018-May-20 13:59N 30°04' W 093°21'0 0.0
2018-May-20 13:29N 30°04' W 093°21'0 0.0
2018-May-20 12:59N 30°04' W 093°21'0 0.0
2018-May-20 12:29N 30°04' W 093°21'0 0.0
2018-May-20 11:59N 30°04' W 093°21'0 0.0
2018-May-20 11:29N 30°04' W 093°21'0 0.0
2018-May-20 10:59N 30°04' W 093°21'0 0.0
2018-May-20 10:29N 30°04' W 093°21'0 0.0
2018-May-20 09:59N 30°04' W 093°21'0 0.0
2018-May-20 09:29N 30°04' W 093°21'0 0.0
2018-May-20 08:59N 30°04' W 093°21'0 0.0
2018-May-20 08:29N 30°04' W 093°21'0 0.0
2018-May-20 07:59N 30°04' W 093°21'0 0.0
2018-May-20 07:29N 30°04' W 093°21'0 0.0
2018-May-20 06:59N 30°04' W 093°21'0 0.0
2018-May-20 06:29N 30°04' W 093°21'0 0.0
2018-May-20 05:59N 30°04' W 093°21'0 0.0
2018-May-20 05:29N 30°04' W 093°21'0 0.0
2018-May-20 04:59N 30°04' W 093°21'0 0.0
2018-May-20 04:29N 30°04' W 093°21'0 0.0
2018-May-20 03:59N 30°04' W 093°21'0 0.0
2018-May-20 03:29N 30°04' W 093°21'0 0.0
2018-May-20 02:59N 30°04' W 093°21'0 0.0
2018-May-20 02:29N 30°04' W 093°21'0 0.0
2018-May-20 01:59N 30°04' W 093°21'0 0.0
2018-May-20 01:29N 30°04' W 093°21'0 0.0
2018-May-20 00:59N 30°04' W 093°21'0 0.0
2018-May-20 00:29N 30°04' W 093°21'0 0.0
2018-May-19 23:59N 30°04' W 093°21'0 0.0
2018-May-19 23:29N 30°04' W 093°21'0 0.0
2018-May-19 22:59N 30°04' W 093°21'0 0.0
2018-May-19 22:29N 30°04' W 093°21'0 0.0
2018-May-19 21:59N 30°04' W 093°21'0 0.0
2018-May-19 21:29N 30°04' W 093°21'0 0.0
2018-May-19 20:59N 30°04' W 093°21'0 0.0
2018-May-19 20:29N 30°04' W 093°21'0 0.0
2018-May-19 19:59N 30°04' W 093°21'0 0.0
2018-May-19 19:29N 30°04' W 093°21'0 0.0
2018-May-19 18:59N 30°04' W 093°21'0 0.0
2018-May-19 18:29N 30°04' W 093°21'0 0.0
2018-May-19 17:59N 30°04' W 093°21'0 0.0
2018-May-19 17:29N 30°04' W 093°21'0 0.0
2018-May-19 16:59N 30°04' W 093°21'0 0.0
2018-May-19 16:29N 30°04' W 093°21'0 0.0
2018-May-19 15:59N 30°04' W 093°21'0 0.0
2018-May-19 15:29N 30°04' W 093°21'0 0.0
2018-May-19 14:59N 30°04' W 093°21'0 0.0
2018-May-19 14:29N 30°04' W 093°21'0 0.0
2018-May-19 13:59N 30°04' W 093°21'0 0.0
2018-May-19 13:29N 30°04' W 093°21'0 0.0
2018-May-19 12:59N 30°04' W 093°21'0 0.0
2018-May-19 12:29N 30°04' W 093°21'0 0.0
2018-May-19 11:59N 30°04' W 093°21'0 0.0
2018-May-19 11:29N 30°04' W 093°21'0 0.0
2018-May-19 10:59N 30°04' W 093°21'0 0.0
2018-May-19 10:29N 30°04' W 093°21'0 0.0
2018-May-19 09:59N 30°04' W 093°21'0 0.0
2018-May-19 09:29N 30°04' W 093°21'0 0.0
2018-May-19 08:58N 30°04' W 093°21'0 0.0
2018-May-19 08:28N 30°04' W 093°21'0 0.0
2018-May-19 07:58N 30°04' W 093°21'0 0.0
2018-May-19 07:28N 30°04' W 093°21'0 0.0
2018-May-19 06:58N 30°04' W 093°21'0 0.0
2018-May-19 06:28N 30°04' W 093°21'0 0.0
2018-May-19 05:58N 30°04' W 093°21'0 0.0
2018-May-19 05:28N 30°04' W 093°21'0 0.0
2018-May-19 04:58N 30°04' W 093°21'0 0.0
2018-May-19 04:28N 30°04' W 093°21'0 0.0
2018-May-19 03:58N 30°04' W 093°21'0 0.0
2018-May-19 03:28N 30°04' W 093°21'0 0.0
2018-May-19 02:58N 30°04' W 093°21'0 0.0
2018-May-19 02:27N 30°04' W 093°21'0 0.0
2018-May-19 01:58N 30°04' W 093°21'0 0.0
2018-May-19 01:28N 30°04' W 093°21'0 0.0
2018-May-19 00:58N 30°04' W 093°21'0 0.0
2018-May-19 00:28N 30°04' W 093°21'0 0.0
2018-May-18 23:58N 30°04' W 093°21'0 0.0
2018-May-18 23:28N 30°04' W 093°21'0 0.0
2018-May-18 22:58N 30°04' W 093°21'0 0.0
2018-May-18 22:28N 30°04' W 093°21'0 0.0
2018-May-18 21:58N 30°04' W 093°21'0 0.0
2018-May-18 21:28N 30°04' W 093°21'0 0.0
2018-May-18 20:58N 30°04' W 093°21'0 0.0
2018-May-18 20:28N 30°04' W 093°21'0 0.0
2018-May-18 19:58N 30°04' W 093°21'0 0.0
2018-May-18 19:28N 30°04' W 093°21'0 0.0
2018-May-18 18:58N 30°04' W 093°21'0 0.0
2018-May-18 18:28N 30°04' W 093°21'0 0.0
2018-May-18 17:58N 30°04' W 093°21'0 0.0
2018-May-18 17:28N 30°04' W 093°21'0 0.0
2018-May-18 16:58N 30°04' W 093°21'0 0.0
2018-May-18 16:28N 30°04' W 093°21'0 0.0
2018-May-18 15:58N 30°04' W 093°21'0 0.0
2018-May-18 15:28N 30°04' W 093°21'0 0.0
2018-May-18 14:58N 30°04' W 093°21'0 0.2
2018-May-18 14:30N 30°04' W 093°20'2 3.8
2018-May-18 14:00N 30°06' W 093°19'1 1.8
2018-May-18 13:30N 30°06' W 093°18'0 0.0
2018-May-18 13:00N 30°06' W 093°18'2 3.2
2018-May-18 12:30N 30°05' W 093°20'1 2.4
2018-May-18 11:59N 30°04' W 093°21'0 0.0
2018-May-18 11:29N 30°04' W 093°21'0 0.0
2018-May-18 10:59N 30°04' W 093°21'0 0.0
2018-May-18 10:29N 30°04' W 093°21'0 0.0
2018-May-18 09:59N 30°04' W 093°21'0 0.0
2018-May-18 09:29N 30°04' W 093°21'0 0.0
2018-May-18 08:59N 30°04' W 093°21'0 0.0
2018-May-18 08:29N 30°04' W 093°21'0 0.0
2018-May-18 07:59N 30°04' W 093°21'0 0.0
2018-May-18 07:29N 30°04' W 093°21'0 0.0
2018-May-18 06:59N 30°04' W 093°21'0 0.0
2018-May-18 06:29N 30°04' W 093°21'0 0.0
2018-May-18 05:59N 30°04' W 093°21'0 0.0
2018-May-18 05:26N 30°04' W 093°21'0 0.0
2018-May-18 04:59N 30°04' W 093°21'0 0.0
2018-May-18 04:29N 30°04' W 093°21'0 0.0
2018-May-18 03:59N 30°04' W 093°21'0 0.0
2018-May-18 03:30N 30°04' W 093°21'0 0.9
2018-May-18 03:00N 30°04' W 093°21'2 4.3
2018-May-18 02:30N 30°04' W 093°23'3 5.5
2018-May-18 02:00N 30°04' W 093°26'3 5.6
2018-May-18 01:28N 30°04' W 093°30'3 5.9
2018-May-18 00:58N 30°04' W 093°33'3 6.7
2018-May-18 00:29N 30°04' W 093°37'4 7.1
2018-May-17 23:57N 30°03' W 093°41'3 6.4
2018-May-17 23:29N 30°02' W 093°44'3 6.9
2018-May-17 23:00N 29°60' W 093°47'3 7.0
2018-May-17 22:30N 29°58' W 093°51'3 6.5
2018-May-17 22:00N 29°56' W 093°53'4 7.2
2018-May-17 21:30N 29°53' W 093°55'4 7.1
2018-May-17 21:00N 29°50' W 093°57'3 5.9
2018-May-17 20:30N 29°48' W 094°00'3 6.9
2018-May-17 20:00N 29°46' W 094°03'3 6.6
2018-May-17 19:30N 29°44' W 094°06'4 7.0
2018-May-17 19:00N 29°42' W 094°09'3 5.2
2018-May-17 18:30N 29°41' W 094°12'3 5.9
2018-May-17 17:59N 29°39' W 094°15'3 5.1
2018-May-17 17:18N 29°38' W 094°19'20 6.0
2018-May-17 13:59N 29°28' W 094°39'3 6.3
2018-May-17 13:30N 29°27' W 094°42'2 0.7
2018-May-17 10:57N 29°25' W 094°43'0 0.0
2018-May-17 10:30N 29°25' W 094°43'2 3.3
2018-May-17 09:52N 29°24' W 094°45'3 7.0
2018-May-17 09:29N 29°22' W 094°48'3 5.1
2018-May-17 08:56N 29°22' W 094°51'2 5.2
2018-May-17 08:30N 29°22' W 094°53'0 0.4
2018-May-17 08:00N 29°22' W 094°54'0 0.0
2018-May-17 07:30N 29°22' W 094°54'0 0.0
2018-May-17 07:00N 29°22' W 094°54'0 0.0
2018-May-17 06:30N 29°22' W 094°54'0 0.0
2018-May-17 05:58N 29°22' W 094°54'0 0.0
2018-May-17 05:30N 29°22' W 094°54'0 0.0
2018-May-17 05:00N 29°22' W 094°54'0 0.0
2018-May-17 04:30N 29°22' W 094°54'0 0.0
2018-May-17 04:00N 29°22' W 094°54'0 0.0
2018-May-17 03:30N 29°22' W 094°54'0 0.0
2018-May-17 03:00N 29°22' W 094°54'0 0.0
2018-May-17 02:30N 29°22' W 094°54'0 0.0
2018-May-17 02:00N 29°22' W 094°54'0 0.0
2018-May-17 01:30N 29°22' W 094°54'0 0.0
2018-May-17 01:00N 29°22' W 094°54'0 0.0
2018-May-17 00:30N 29°22' W 094°54'0 0.0
2018-May-17 00:00N 29°22' W 094°54'0 0.0
2018-May-16 23:30N 29°22' W 094°54'0 0.0
2018-May-16 23:00N 29°22' W 094°54'0 0.0
2018-May-16 22:29N 29°22' W 094°54'0 0.0
2018-May-16 22:00N 29°22' W 094°54'0 0.0
2018-May-16 21:30N 29°22' W 094°54'0 0.0
2018-May-16 21:00N 29°22' W 094°54'0 0.0
2018-May-16 20:30N 29°22' W 094°54'0 0.0
2018-May-16 19:59N 29°22' W 094°54'0 0.0
2018-May-16 19:30N 29°22' W 094°54'0 0.0
2018-May-16 18:59N 29°22' W 094°54'0 0.0
2018-May-16 18:30N 29°22' W 094°54'0 0.0
2018-May-16 18:00N 29°22' W 094°54'0 0.0
2018-May-16 17:29N 29°22' W 094°54'0 0.0
2018-May-16 16:58N 29°22' W 094°54'0 0.0
2018-May-16 16:27N 29°22' W 094°54'0 0.0
2018-May-16 15:58N 29°22' W 094°54'0 0.0
2018-May-16 15:30N 29°22' W 094°54'0 0.0
2018-May-16 14:58N 29°22' W 094°54'0 0.0
2018-May-16 14:30N 29°22' W 094°54'0 0.0
2018-May-16 13:59N 29°22' W 094°54'0 0.0
2018-May-16 13:30N 29°22' W 094°54'0 0.0
2018-May-16 13:00N 29°22' W 094°54'0 0.0
2018-May-16 12:30N 29°22' W 094°54'0 0.0
2018-May-16 12:00N 29°22' W 094°54'0 0.0
2018-May-16 11:30N 29°22' W 094°54'0 0.0
2018-May-16 11:00N 29°22' W 094°54'0 0.1
2018-May-16 10:30N 29°22' W 094°53'0 0.2
2018-May-16 10:01N 29°22' W 094°53'0 0.8
2018-May-16 09:30N 29°23' W 094°53'3 5.3
2018-May-16 09:00N 29°22' W 094°50'2 4.9
2018-May-16 08:30N 29°22' W 094°47'2 4.7
2018-May-16 08:00N 29°24' W 094°45'2 4.2
2018-May-16 07:30N 29°25' W 094°44'1 1.6
2018-May-16 07:00N 29°26' W 094°43'0 0.0
2018-May-16 06:30N 29°26' W 094°43'0 0.0
2018-May-16 06:00N 29°26' W 094°43'0 0.0
2018-May-16 05:30N 29°26' W 094°43'0 0.2
2018-May-16 04:58N 29°26' W 094°43'0 0.3
2018-May-16 04:30N 29°26' W 094°43'0 0.0
2018-May-16 04:00N 29°26' W 094°43'0 0.0
2018-May-16 03:30N 29°26' W 094°43'0 0.0
2018-May-16 03:00N 29°26' W 094°43'0 0.0
2018-May-16 02:30N 29°26' W 094°43'0 0.0
2018-May-16 02:00N 29°26' W 094°43'0 0.0
2018-May-16 01:30N 29°26' W 094°43'0 0.0
2018-May-16 01:00N 29°26' W 094°43'0 0.0
2018-May-16 00:30N 29°26' W 094°43'0 0.0
2018-May-16 00:00N 29°26' W 094°43'0 0.2
2018-May-15 23:29N 29°26' W 094°43'0 0.0
2018-May-15 22:51N 29°26' W 094°43'0 0.0
2018-May-15 20:22N 29°26' W 094°43'0 0.0
2018-May-15 19:31N 29°26' W 094°43'0 0.0
2018-May-15 19:27N 29°26' W 094°43'0 0.0
2018-May-15 15:00N 29°26' W 094°43'0 0.0
2018-May-15 14:28N 29°26' W 094°43'0 0.0
2018-May-15 14:00N 29°26' W 094°43'0 0.0
2018-May-15 13:29N 29°26' W 094°43'0 0.0
2018-May-15 13:00N 29°26' W 094°43'0 0.0
2018-May-15 12:30N 29°26' W 094°43'0 0.0
2018-May-15 12:00N 29°26' W 094°43'0 0.0
2018-May-15 11:30N 29°26' W 094°43'0 0.0
2018-May-15 10:51N 29°26' W 094°43'0 0.0
2018-May-15 10:29N 29°26' W 094°43'0 0.0
2018-May-15 10:00N 29°26' W 094°43'0 0.0
2018-May-15 09:29N 29°26' W 094°43'0 0.0
2018-May-15 09:00N 29°26' W 094°43'0 0.0
2018-May-15 08:27N 29°26' W 094°43'0 0.0
2018-May-15 07:08N 29°26' W 094°43'0 0.0
2018-May-15 07:00N 29°26' W 094°43'0 0.0
2018-May-15 06:30N 29°26' W 094°43'0 0.0
2018-May-15 06:00N 29°26' W 094°43'0 0.0
2018-May-15 05:30N 29°26' W 094°43'0 0.0
2018-May-15 05:00N 29°26' W 094°43'0 0.0
2018-May-15 04:29N 29°26' W 094°43'0 0.0
2018-May-15 04:00N 29°26' W 094°43'0 0.0
2018-May-15 03:27N 29°26' W 094°43'0 0.0
2018-May-15 02:59N 29°26' W 094°43'0 0.0
2018-May-15 02:30N 29°26' W 094°43'0 0.0
2018-May-15 02:00N 29°26' W 094°43'0 0.0
2018-May-15 01:30N 29°26' W 094°43'0 0.0
2018-May-15 01:00N 29°26' W 094°43'0 0.0
2018-May-15 00:30N 29°26' W 094°43'0 0.0
2018-May-15 00:00N 29°26' W 094°43'0 0.0
2018-May-14 23:29N 29°26' W 094°43'0 0.0
2018-May-14 22:48N 29°26' W 094°43'0 0.0
2018-May-14 22:29N 29°26' W 094°43'0 0.0
2018-May-14 21:49N 29°26' W 094°43'0 0.0
2018-May-14 21:30N 29°26' W 094°43'0 0.0
2018-May-14 19:30N 29°26' W 094°43'0 0.3
2018-May-14 19:00N 29°26' W 094°43'8 5.1
2018-May-14 17:28N 29°29' W 094°35'4 5.1
2018-May-14 16:36N 29°31' W 094°30'4 4.9
2018-May-14 15:50N 29°34' W 094°27'2 4.9
2018-May-14 15:29N 29°34' W 094°25'2 4.2
2018-May-14 15:00N 29°36' W 094°24'2 3.3
2018-May-14 14:27N 29°36' W 094°22'2 3.9
2018-May-14 14:00N 29°37' W 094°20'2 4.9
2018-May-14 13:30N 29°38' W 094°18'2 5.0
2018-May-14 13:00N 29°39' W 094°15'3 5.0
2018-May-14 12:30N 29°40' W 094°13'3 4.9
2018-May-14 11:59N 29°41' W 094°10'2 5.0
2018-May-14 11:30N 29°43' W 094°08'3 5.3
2018-May-14 11:00N 29°44' W 094°05'3 5.4
2018-May-14 10:30N 29°46' W 094°03'3 5.5
2018-May-14 10:00N 29°48' W 094°00'3 5.2
2018-May-14 09:30N 29°49' W 093°58'3 5.3
2018-May-14 09:00N 29°52' W 093°56'3 5.1
2018-May-14 08:30N 29°54' W 093°55'3 6.3
2018-May-14 08:00N 29°56' W 093°52'3 5.4
2018-May-14 07:30N 29°58' W 093°51'3 6.4
2018-May-14 07:00N 29°59' W 093°47'3 6.6
2018-May-14 06:30N 30°02' W 093°44'3 5.8
2018-May-14 06:00N 30°03' W 093°42'3 6.1
2018-May-14 05:30N 30°04' W 093°38'3 5.0
2018-May-14 04:59N 30°04' W 093°35'2 4.5
2018-May-14 04:29N 30°04' W 093°33'2 4.5
2018-May-14 04:00N 30°04' W 093°30'2 4.0
2018-May-14 03:30N 30°04' W 093°28'2 4.3
2018-May-14 03:00N 30°04' W 093°25'2 4.2
2018-May-14 02:30N 30°04' W 093°23'2 3.6
2018-May-14 02:00N 30°04' W 093°21'2 4.2
2018-May-14 01:30N 30°06' W 093°20'3 5.1
2018-May-14 01:00N 30°08' W 093°20'2 4.4
2018-May-14 00:30N 30°10' W 093°19'0 0.5
2018-May-14 00:00N 30°10' W 093°19'0 0.2
2018-May-13 23:30N 30°10' W 093°19'0 0.0
2018-May-13 23:00N 30°10' W 093°19'0 0.0
2018-May-13 22:30N 30°10' W 093°19'0 0.0
2018-May-13 22:00N 30°10' W 093°19'0 0.0
2018-May-13 21:30N 30°10' W 093°19'0 0.0
2018-May-13 21:00N 30°10' W 093°19'0 0.0
2018-May-13 20:30N 30°10' W 093°19'0 0.0
2018-May-13 20:00N 30°10' W 093°19'0 0.0
2018-May-13 19:30N 30°10' W 093°19'0 0.0
2018-May-13 19:00N 30°10' W 093°19'0 0.0
2018-May-13 18:30N 30°10' W 093°19'0 0.0
2018-May-13 18:00N 30°10' W 093°19'0 0.0
2018-May-13 17:30N 30°10' W 093°19'0 0.0
2018-May-13 17:00N 30°10' W 093°19'0 0.0
2018-May-13 16:30N 30°10' W 093°19'0 0.0
2018-May-13 16:00N 30°10' W 093°19'0 0.0
2018-May-13 15:30N 30°10' W 093°19'0 0.0
2018-May-13 15:00N 30°10' W 093°19'0 0.0
2018-May-13 14:30N 30°10' W 093°19'0 0.0
2018-May-13 14:00N 30°10' W 093°19'0 0.0
2018-May-13 13:30N 30°10' W 093°19'0 0.0
2018-May-13 13:00N 30°10' W 093°19'0 0.0
2018-May-13 12:30N 30°10' W 093°19'0 0.0
2018-May-13 12:00N 30°10' W 093°19'0 0.0
2018-May-13 11:30N 30°10' W 093°19'0 0.0
2018-May-13 11:00N 30°10' W 093°19'0 0.0
2018-May-13 10:30N 30°10' W 093°19'0 0.0
2018-May-13 10:00N 30°10' W 093°19'0 0.0
2018-May-13 09:30N 30°10' W 093°19'0 0.0
2018-May-13 09:00N 30°10' W 093°19'0 0.0
2018-May-13 08:30N 30°10' W 093°19'0 0.0
2018-May-13 07:59N 30°10' W 093°19'0 0.0
2018-May-13 07:30N 30°10' W 093°19'0 0.0
2018-May-13 07:00N 30°10' W 093°19'0 0.0
2018-May-13 06:30N 30°10' W 093°19'0 0.0
2018-May-13 06:00N 30°10' W 093°19'0 0.0
2018-May-13 05:30N 30°10' W 093°19'0 0.0
2018-May-13 05:00N 30°10' W 093°19'0 0.0
2018-May-13 04:30N 30°10' W 093°19'0 0.0
2018-May-13 04:00N 30°10' W 093°19'0 0.0
2018-May-13 03:30N 30°10' W 093°19'0 0.0
2018-May-13 02:59N 30°10' W 093°19'0 0.0
2018-May-13 02:30N 30°10' W 093°19'0 0.0
2018-May-13 02:00N 30°10' W 093°19'0 0.0
2018-May-13 01:30N 30°10' W 093°19'0 0.0
2018-May-13 01:00N 30°10' W 093°19'0 0.0
2018-May-13 00:30N 30°10' W 093°19'0 0.0
2018-May-12 23:59N 30°10' W 093°19'0 0.0
2018-May-12 23:30N 30°10' W 093°19'0 0.0
2018-May-12 23:00N 30°10' W 093°19'0 0.0
2018-May-12 22:30N 30°10' W 093°19'0 0.0
2018-May-12 22:00N 30°10' W 093°19'  

Dump ship's entire track history